Arnold Bay, Vermont
Current Conditions -  °F | °C
As of 5:15 AM on Friday 24 Oct 2014 (Local Time) from K6B0 Reporting Station
Moderate Rain Moderate Rain  
Wind Chill: 39°   Ceiling: 400
Heat Index: 42°   Visibility: 3mi
Dew Point: 42°   Wind: 6mph
Humidity: 100%   Direction: 350°N
Pressure: 29.82"   Gusts: NA
Location:  44.0804°N, 73.3324°W
Report Text: K6B0 240915Z AUTO 35005KT 3SM RA OVC004 06/06 A2982 RMK AO2 T00570057
Loading
Personal Weather Stations






























Interactive Weather Map
Tropical Storm Tracking
New forecast layout! Learn more

10-Day Weather Forecast

Advertisements
Track Severe Weather on mobile